Terminal Aerodrome Forecast
Issued by NWS Cleveland, OH

Home | Current Version | Previous Version | Graphics & Text | Print | Product List | Glossary On
Versions: 1 2 3 4 5 6 7 8 9 10 11 12 13 14 15 16 17 18 19 20 21
000
FTUS41 KCLE 231103 AAC
TAFCAK
TAF AMD
KCAK 231103Z 2311/2406 VRB03KT 4SM BR FEW004 SCT040
      TEMPO 2311/2314 2SM BR BKN004
     FM231400 28005KT P6SM SKC=

USA.gov is the U.S. government's official web portal to all federal, state and local government web resources and services.